createdAt,value
2023-05-21T00:01:09.663Z,3.15
2023-05-21T00:04:51.627Z,2.95
2023-05-21T00:08:34.442Z,3.40
2023-05-21T00:12:16.347Z,2.88
2023-05-21T00:15:58.232Z,2.58
2023-05-21T00:19:40.371Z,2.45
2023-05-21T00:23:22.299Z,2.30
2023-05-21T00:27:04.205Z,2.25
2023-05-21T00:30:47.348Z,2.53
2023-05-21T00:34:29.676Z,2.63
2023-05-21T00:38:11.543Z,2.10
2023-05-21T00:41:54.081Z,2.53
2023-05-21T00:45:37.458Z,2.60
2023-05-21T00:49:22.457Z,2.80
2023-05-21T00:53:04.927Z,2.22
2023-05-21T00:56:47.922Z,2.70
2023-05-21T01:00:30.776Z,2.95
2023-05-21T01:04:13.260Z,2.13
2023-05-21T01:07:56.922Z,2.40
2023-05-21T01:11:46.698Z,2.92
2023-05-21T01:15:29.359Z,2.83
2023-05-21T01:19:16.137Z,2.38
2023-05-21T01:22:58.376Z,2.42
2023-05-21T01:26:42.786Z,2.60
2023-05-21T01:30:25.557Z,2.75
2023-05-21T01:34:11.397Z,2.47
2023-05-21T01:37:59.667Z,2.47
2023-05-21T01:41:44.970Z,2.42
2023-05-21T01:45:29.718Z,2.85
2023-05-21T01:49:11.778Z,2.60
2023-05-21T01:52:57.068Z,2.80
2023-05-21T01:56:38.958Z,2.47
2023-05-21T02:00:26.940Z,2.67
2023-05-21T02:04:08.905Z,2.47
2023-05-21T02:07:55.011Z,2.30
2023-05-21T02:11:36.880Z,2.60
2023-05-21T02:15:19.327Z,2.38
2023-05-21T02:19:01.194Z,1.90
2023-05-21T02:22:45.307Z,2.80
2023-05-21T02:26:27.521Z,2.75
2023-05-21T02:30:13.957Z,2.10
2023-05-21T02:33:56.379Z,2.87
2023-05-21T02:37:40.436Z,2.80
2023-05-21T02:41:23.214Z,2.72
2023-05-21T02:45:11.932Z,2.63
2023-05-21T02:48:53.755Z,2.70
2023-05-21T02:52:35.724Z,2.50
2023-05-21T02:56:18.622Z,2.67
2023-05-21T03:00:00.538Z,2.53
2023-05-21T03:03:42.489Z,2.60
2023-05-21T03:07:24.442Z,2.50
2023-05-21T03:11:06.342Z,2.20
2023-05-21T03:14:51.318Z,3.00
2023-05-21T03:18:33.180Z,2.63
2023-05-21T03:22:15.143Z,2.67
2023-05-21T03:25:57.044Z,2.35
2023-05-21T03:29:40.075Z,2.40
2023-05-21T03:33:22.627Z,3.90
2023-05-21T03:37:04.660Z,2.35
2023-05-21T03:40:47.028Z,2.55
2023-05-21T03:44:32.456Z,2.83
2023-05-21T03:48:14.430Z,2.72
2023-05-21T03:51:56.291Z,2.85
2023-05-21T03:55:38.492Z,3.58
2023-05-21T03:59:20.419Z,3.60
2023-05-21T04:03:02.389Z,2.53
2023-05-21T04:06:44.561Z,2.55
2023-05-21T04:10:27.007Z,3.08
2023-05-21T04:14:08.895Z,3.08
2023-05-21T04:17:52.367Z,2.50
2023-05-21T04:21:34.473Z,2.42
2023-05-21T04:25:16.354Z,2.75
2023-05-21T04:28:59.484Z,2.38
2023-05-21T04:32:41.554Z,2.72
2023-05-21T04:36:24.428Z,2.35
2023-05-21T04:40:06.840Z,2.55
2023-05-21T04:43:48.740Z,2.88
2023-05-21T04:47:30.716Z,2.60
2023-05-21T04:51:12.598Z,2.60
2023-05-21T04:54:54.414Z,3.00
2023-05-21T04:58:36.542Z,2.30
2023-05-21T05:02:18.776Z,2.15
2023-05-21T05:06:01.512Z,2.30
2023-05-21T05:09:44.029Z,2.10
2023-05-21T05:13:26.253Z,3.60
2023-05-21T05:17:10.613Z,2.95
2023-05-21T05:20:52.555Z,2.88
2023-05-21T05:24:34.363Z,2.55
2023-05-21T05:28:16.238Z,2.97
2023-05-21T05:31:58.056Z,3.05
2023-05-21T05:35:39.924Z,2.42
2023-05-21T05:39:22.039Z,2.70
2023-05-21T05:43:03.916Z,2.40
2023-05-21T05:46:45.843Z,2.63
2023-05-21T05:50:28.086Z,3.33
2023-05-21T05:54:10.086Z,2.90
2023-05-21T05:57:52.143Z,2.22
2023-05-21T06:01:34.437Z,2.85
2023-05-21T06:05:16.703Z,2.60
2023-05-21T06:08:58.670Z,2.78
2023-05-21T06:12:40.571Z,2.83
2023-05-21T06:16:22.464Z,2.45
2023-05-21T06:20:05.803Z,2.38
2023-05-21T06:23:47.642Z,2.65
2023-05-21T06:27:29.521Z,2.20
2023-05-21T06:31:11.883Z,3.00
2023-05-21T06:34:53.945Z,2.95
2023-05-21T06:38:35.767Z,2.80
2023-05-21T06:42:17.651Z,3.03
2023-05-21T06:46:02.466Z,3.10
2023-05-21T06:49:44.338Z,2.30
2023-05-21T06:53:26.243Z,2.00
2023-05-21T06:57:08.271Z,2.13
2023-05-21T07:00:50.203Z,2.40
2023-05-21T07:04:32.191Z,2.63
2023-05-21T07:08:14.071Z,3.00
2023-05-21T07:11:55.950Z,2.58
2023-05-21T07:15:38.146Z,2.88
2023-05-21T07:19:20.361Z,2.45
2023-05-21T07:23:02.339Z,2.40
2023-05-21T07:26:44.214Z,2.80
2023-05-21T07:30:26.111Z,2.67
2023-05-21T07:34:07.975Z,3.05
2023-05-21T07:37:51.390Z,2.33
2023-05-21T07:41:33.318Z,2.80
2023-05-21T07:45:15.363Z,2.78
2023-05-21T07:48:57.315Z,2.80
2023-05-21T07:52:39.241Z,2.67
2023-05-21T07:56:21.628Z,2.78
2023-05-21T08:00:05.738Z,2.95
2023-05-21T08:03:47.840Z,2.58
2023-05-21T08:07:29.874Z,2.55
2023-05-21T08:11:11.826Z,2.72
2023-05-21T08:14:53.710Z,2.40
2023-05-21T08:18:35.590Z,2.40
2023-05-21T08:22:18.063Z,2.67
2023-05-21T08:26:00.022Z,1.98
2023-05-21T08:29:42.310Z,2.60
2023-05-21T08:33:24.265Z,2.35
2023-05-21T08:37:06.150Z,2.50
2023-05-21T08:40:49.755Z,2.55
2023-05-21T08:44:34.540Z,2.22
2023-05-21T08:48:17.695Z,2.17
2023-05-21T08:52:00.584Z,2.22
2023-05-21T08:55:43.849Z,2.65
2023-05-21T08:59:26.662Z,2.28
2023-05-21T09:03:11.321Z,2.42
2023-05-21T09:06:55.220Z,2.33
2023-05-21T09:10:39.701Z,2.60
2023-05-21T09:14:23.293Z,1.83
2023-05-21T09:18:05.209Z,2.30
2023-05-21T09:21:47.166Z,2.40
2023-05-21T09:25:29.424Z,2.25
2023-05-21T09:29:13.652Z,2.15
2023-05-21T09:33:00.252Z,2.42
2023-05-21T09:36:43.863Z,2.17
2023-05-21T09:40:26.018Z,1.83
2023-05-21T09:44:07.907Z,1.90
2023-05-21T09:47:51.520Z,1.55
2023-05-21T09:51:33.468Z,1.58
2023-05-21T09:55:16.457Z,1.92
2023-05-21T09:59:01.999Z,1.33
2023-05-21T10:02:47.310Z,1.38
2023-05-21T10:10:15.076Z,1.42
2023-05-21T10:14:16.840Z,1.58
2023-05-21T10:17:59.770Z,1.50
2023-05-21T10:21:42.177Z,1.42
2023-05-21T10:25:25.750Z,1.52
2023-05-21T10:29:09.053Z,1.30
2023-05-21T10:32:51.572Z,1.38
2023-05-21T10:36:35.684Z,1.30
2023-05-21T10:40:18.809Z,1.30
2023-05-21T10:44:14.556Z,0.68
2023-05-21T10:47:56.466Z,1.05
2023-05-21T10:51:56.971Z,0.95
2023-05-21T10:55:47.050Z,0.98
2023-05-21T10:59:44.194Z,1.50
2023-05-21T11:03:26.368Z,1.20
2023-05-21T11:07:08.574Z,1.02
2023-05-21T11:11:00.110Z,0.95
2023-05-21T11:14:43.575Z,1.05
2023-05-21T11:18:38.073Z,1.02
2023-05-21T11:22:25.510Z,1.05
2023-05-21T11:26:07.642Z,1.08
2023-05-21T11:29:55.744Z,1.10
2023-05-21T11:33:37.711Z,1.27
2023-05-21T11:37:29.408Z,1.35
2023-05-21T11:41:11.450Z,1.20
2023-05-21T11:44:53.379Z,0.93
2023-05-21T11:48:38.099Z,1.00
2023-05-21T11:52:20.186Z,1.42
2023-05-21T11:56:02.688Z,1.52
2023-05-21T11:59:45.660Z,1.10
2023-05-21T12:03:27.734Z,1.00
2023-05-21T12:07:11.330Z,0.88
2023-05-21T12:10:59.326Z,1.10
2023-05-21T12:14:47.807Z,0.93
2023-05-21T12:18:29.722Z,0.82
2023-05-21T12:22:11.661Z,1.15
2023-05-21T12:25:54.088Z,0.93
2023-05-21T12:29:43.645Z,1.00
2023-05-21T12:33:26.099Z,1.27
2023-05-21T12:37:08.962Z,1.05
2023-05-21T12:40:50.961Z,1.20
2023-05-21T12:44:34.399Z,1.05
2023-05-21T12:51:59.748Z,1.00
2023-05-21T12:55:41.682Z,1.30
2023-05-21T12:59:23.560Z,1.23
2023-05-21T13:03:06.724Z,1.00
2023-05-21T13:06:48.882Z,1.30
2023-05-21T13:10:30.999Z,0.98
2023-05-21T13:14:12.868Z,1.85
2023-05-21T13:17:56.758Z,1.30
2023-05-21T13:21:39.004Z,1.50
2023-05-21T13:25:24.823Z,1.83
2023-05-21T13:29:06.948Z,1.40
2023-05-21T13:32:48.972Z,1.30
2023-05-21T13:36:31.349Z,1.02
2023-05-21T13:40:15.925Z,1.08
2023-05-21T13:43:58.836Z,1.70
2023-05-21T13:47:41.275Z,1.27
2023-05-21T13:51:37.495Z,1.20
2023-05-21T13:55:20.832Z,1.40
2023-05-21T13:59:02.771Z,1.15
2023-05-21T14:02:44.951Z,1.60
2023-05-21T14:06:27.119Z,3.47
2023-05-21T14:10:09.278Z,2.00
2023-05-21T14:13:51.376Z,1.88
2023-05-21T14:17:33.324Z,1.83
2023-05-21T14:21:15.331Z,6.68
2023-05-21T14:24:57.350Z,1.90
2023-05-21T14:28:39.260Z,1.30
2023-05-21T14:32:21.696Z,1.48
2023-05-21T14:36:04.799Z,1.60
2023-05-21T14:39:49.532Z,1.95
2023-05-21T14:43:31.469Z,1.60
2023-05-21T14:47:13.384Z,1.63
2023-05-21T14:50:55.474Z,3.60
2023-05-21T14:54:37.616Z,2.00
2023-05-21T14:58:19.479Z,1.65
2023-05-21T15:02:01.402Z,1.70
2023-05-21T15:05:43.291Z,1.58
2023-05-21T15:09:25.377Z,2.10
2023-05-21T15:13:07.209Z,1.75
2023-05-21T15:16:49.226Z,1.90
2023-05-21T15:20:31.118Z,1.30
2023-05-21T15:24:12.986Z,1.67
2023-05-21T15:27:55.437Z,1.90
2023-05-21T15:31:39.533Z,1.55
2023-05-21T15:35:21.595Z,1.50
2023-05-21T15:39:03.938Z,1.30
2023-05-21T15:42:45.907Z,1.65
2023-05-21T15:46:27.843Z,1.55
2023-05-21T15:50:10.705Z,1.52
2023-05-21T15:53:52.690Z,1.70
2023-05-21T15:57:34.531Z,1.80
2023-05-21T16:01:16.626Z,1.40
2023-05-21T16:04:59.177Z,1.80
2023-05-21T16:08:41.132Z,1.42
2023-05-21T16:12:23.125Z,1.58
2023-05-21T16:16:05.376Z,1.35
2023-05-21T16:19:47.756Z,1.63
2023-05-21T16:23:29.943Z,1.63
2023-05-21T16:27:12.004Z,1.67
2023-05-21T16:30:53.855Z,1.52
2023-05-21T16:34:36.332Z,1.48
2023-05-21T16:38:18.321Z,1.70
2023-05-21T16:42:01.317Z,2.10
2023-05-21T16:45:45.069Z,1.73
2023-05-21T16:49:27.977Z,1.70
2023-05-21T16:53:11.417Z,1.50
2023-05-21T16:56:54.572Z,1.60
2023-05-21T17:00:36.664Z,1.52
2023-05-21T17:04:18.650Z,1.38
2023-05-21T17:08:00.595Z,1.52
2023-05-21T17:11:43.683Z,1.55
2023-05-21T17:15:26.802Z,1.63
2023-05-21T17:19:09.219Z,1.75
2023-05-21T17:22:51.290Z,1.45
2023-05-21T17:26:33.425Z,1.40
2023-05-21T17:30:15.415Z,1.77
2023-05-21T17:33:57.352Z,1.73
2023-05-21T17:37:39.278Z,1.75
2023-05-21T17:41:24.194Z,1.90
2023-05-21T17:45:06.457Z,2.00
2023-05-21T17:48:48.386Z,2.00
2023-05-21T17:52:30.282Z,1.67
2023-05-21T17:56:12.177Z,2.20
2023-05-21T17:59:55.313Z,1.70
2023-05-21T18:03:37.177Z,1.40
2023-05-21T18:07:19.056Z,1.95
2023-05-21T18:11:01.684Z,1.80
2023-05-21T18:14:43.546Z,1.98
2023-05-21T18:18:25.798Z,1.60
2023-05-21T18:22:08.233Z,1.70
2023-05-21T18:25:50.739Z,2.03
2023-05-21T18:29:32.704Z,1.80
2023-05-21T18:33:15.597Z,1.55
2023-05-21T18:36:58.917Z,2.55
2023-05-21T18:40:41.254Z,1.75
2023-05-21T18:44:23.186Z,1.65
2023-05-21T18:48:05.499Z,1.88
2023-05-21T18:51:47.462Z,1.90
2023-05-21T18:55:29.316Z,2.15
2023-05-21T18:59:11.184Z,2.25
2023-05-21T19:02:53.152Z,2.17
2023-05-21T19:06:35.082Z,2.30
2023-05-21T19:10:18.275Z,2.15
2023-05-21T19:14:00.880Z,1.90
2023-05-21T19:17:42.838Z,2.00
2023-05-21T19:21:25.317Z,1.92
2023-05-21T19:25:07.460Z,2.22
2023-05-21T19:28:53.977Z,1.90
2023-05-21T19:32:36.119Z,2.20
2023-05-21T19:36:18.728Z,2.25
2023-05-21T19:40:00.577Z,2.33
2023-05-21T19:43:42.554Z,2.53
2023-05-21T19:47:24.599Z,2.60
2023-05-21T19:51:06.526Z,2.70
2023-05-21T19:54:48.360Z,2.55
2023-05-21T19:58:30.510Z,2.58
2023-05-21T20:02:13.321Z,2.80
2023-05-21T20:05:55.238Z,2.47
2023-05-21T20:09:37.591Z,2.90
2023-05-21T20:13:21.324Z,3.17
2023-05-21T20:17:05.678Z,3.13
2023-05-21T20:20:47.811Z,2.90
2023-05-21T20:24:29.758Z,2.78
2023-05-21T20:28:12.210Z,2.85
2023-05-21T20:31:54.099Z,2.85
2023-05-21T20:35:36.003Z,3.17
2023-05-21T20:39:19.044Z,2.67
2023-05-21T20:43:01.745Z,2.90
2023-05-21T20:46:43.684Z,2.92
2023-05-21T20:50:25.916Z,2.78
2023-05-21T20:54:07.948Z,2.72
2023-05-21T20:57:49.787Z,2.92
2023-05-21T21:01:31.901Z,2.53
2023-05-21T21:05:13.811Z,3.17
2023-05-21T21:08:56.047Z,2.70
2023-05-21T21:12:38.144Z,3.30
2023-05-21T21:16:20.038Z,3.08
2023-05-21T21:20:01.984Z,3.05
2023-05-21T21:23:43.945Z,3.33
2023-05-21T21:27:25.879Z,2.80
2023-05-21T21:31:07.762Z,3.22
2023-05-21T21:34:49.630Z,2.67
2023-05-21T21:38:31.495Z,3.40
2023-05-21T21:42:13.430Z,3.22
2023-05-21T21:45:55.533Z,3.50
2023-05-21T21:49:37.449Z,3.67
2023-05-21T21:53:19.414Z,3.65
2023-05-21T21:57:01.537Z,3.08
2023-05-21T22:00:43.606Z,3.60
2023-05-21T22:04:25.619Z,3.08
2023-05-21T22:08:07.496Z,3.35
2023-05-21T22:11:49.514Z,3.60
2023-05-21T22:15:32.340Z,3.65
2023-05-21T22:19:15.767Z,3.45
2023-05-21T22:22:58.597Z,3.08
2023-05-21T22:26:40.514Z,3.50
2023-05-21T22:30:22.344Z,3.28
2023-05-21T22:34:04.199Z,3.72
2023-05-21T22:37:46.974Z,3.15
2023-05-21T22:41:28.845Z,3.55
2023-05-21T22:45:11.080Z,3.80
2023-05-21T22:48:53.981Z,3.33
2023-05-21T22:52:38.153Z,3.90
2023-05-21T22:56:19.978Z,3.97
2023-05-21T23:00:01.818Z,4.18
2023-05-21T23:03:43.784Z,4.03
2023-05-21T23:07:25.876Z,3.90
2023-05-21T23:11:07.742Z,3.97
2023-05-21T23:14:49.576Z,3.60
2023-05-21T23:18:32.777Z,3.75
2023-05-21T23:22:14.606Z,3.80
2023-05-21T23:25:57.799Z,3.15
2023-05-21T23:29:39.835Z,3.70
2023-05-21T23:33:21.673Z,3.63
2023-05-21T23:37:06.598Z,3.38
2023-05-21T23:40:48.460Z,3.17
2023-05-21T23:44:30.329Z,3.53
2023-05-21T23:48:12.212Z,3.67
2023-05-21T23:51:54.313Z,3.10
2023-05-21T23:55:36.552Z,2.97
2023-05-21T23:59:18.633Z,2.83
